Flight Track Log - Related Links

Times and Time Zones

All times are in EDT time to prevent confusion due to time zone crossing. See the ASQ5678 flight status page for this flight to view local times or setup timezone preferences in your user account.

Time Position Orientation Groundspeed Altitude Reporting Facility
EDT Latitude Longitude Course Direction KTS MPH feet Rate Location/Type
Sun 07:29:26 AM 34.7394 -92.1919 193° South 169 194 1,200  Level Memphis Center
Sun 07:30:27 AM 34.7256 -92.1436 109° East 203 234 2,700 1,869 Climbing Memphis Center
Sun 07:31:28 AM 34.6689 -92.1600 193° South 234 269 5,000 2,380 Climbing Memphis Center
Sun 07:32:00 AM 34.4911 -92.3908 190° South  Level Estimated
Sun 07:32:28 AM 34.6036 -92.1964 205° Southwest 270 311 7,500  Level Memphis Center
Sun 07:33:00 AM 34.4028 -92.3616 165° South  Level FlightAware Approximate
Sun 07:33:42 AM 34.5158 -92.2122 188° South 267 307 10,200  Level Memphis Center
Sun 07:34:00 AM 34.3239 -92.4180 193° South  Level Estimated
Sun 07:34:42 AM 34.4239 -92.2306 189° South 291 335 11,300  Level Memphis Center
Sun 07:35:42 AM 34.3275 -92.2486 189° South 327 376 12,700 1,650 Climbing Memphis Center
Sun 07:36:42 AM 34.2269 -92.2664 188° South 356 410 14,600 1,800 Climbing Memphis Center
Sun 07:37:42 AM 34.1244 -92.2842 188° South 370 426 16,300 1,550 Climbing Memphis Center
Sun 07:38:42 AM 34.0261 -92.3044 190° South 377 434 17,700 1,316 Climbing Memphis Center
Sun 07:40:17 AM 33.8619 -92.3361 189° South 385 443 19,700 1,277 Climbing Fort Worth Center
Sun 07:41:17 AM 33.7606 -92.3544 189° South 385 443 21,000 1,300 Climbing Fort Worth Center
Sun 07:42:17 AM 33.6506 -92.3733 188° South 390 449 22,300 1,300 Climbing Fort Worth Center
Sun 07:43:17 AM 33.5431 -92.3944 189° South 390 449 23,600 1,300 Climbing Fort Worth Center
Sun 07:44:17 AM 33.4350 -92.4106 187° South 390 449 24,900 1,300 Climbing Fort Worth Center
Sun 07:45:17 AM 33.3317 -92.4314 190° South 385 443 26,200 1,300 Climbing Fort Worth Center
Sun 07:46:17 AM 33.2197 -92.4525 189° South 396 456 27,500 900 Climbing Fort Worth Center
Sun 07:47:17 AM 33.1100 -92.4711 188° South 402 463 28,000 250 Climbing Fort Worth Center
Sun 07:48:17 AM 32.9897 -92.4900 188° South 422 486 28,000  Level Fort Worth Center
Sun 07:49:17 AM 32.8672 -92.5117 188° South 435 501 28,000  Level Fort Worth Center
Sun 07:51:16 AM 32.6203 -92.5606 189° South 460 529 28,000  Level Houston Center
Sun 07:52:16 AM 32.5044 -92.5831 189° South 460 529 28,000  Level Houston Center
Sun 07:53:17 AM 32.3789 -92.6028 188° South 458 527 28,000  Level Houston Center
Sun 07:54:18 AM 32.2614 -92.6825 210° Southwest 462 532 28,000  Level Houston Center
Sun 07:55:19 AM 32.1581 -92.7683 215° Southwest 460 529 28,000  Level Houston Center
Sun 07:56:19 AM 32.0617 -92.8492 215° Southwest 460 529 28,000  Level Houston Center
Sun 07:57:20 AM 31.9564 -92.9364 215° Southwest 462 532 28,000  Level Houston Center
Sun 07:58:21 AM 31.8461 -93.0303 216° Southwest 465 535 28,000  Level Houston Center
Sun 07:59:21 AM 31.7253 -93.1236 213° Southwest 459 528 28,000  Level Houston Center
Sun 08:00:22 AM 31.6219 -93.2128 216° Southwest 462 532 28,000  Level Houston Center
Sun 08:01:23 AM 31.5125 -93.3036 215° Southwest 462 532 28,000  Level Houston Center
Sun 08:02:24 AM 31.4072 -93.3886 215° Southwest 463 533 28,000  Level Houston Center
Sun 08:03:24 AM 31.3019 -93.4739 215° Southwest 464 534 28,000  Level Houston Center
Sun 08:04:25 AM 31.2014 -93.5567 215° Southwest 463 533 28,000  Level Houston Center
Sun 08:05:26 AM 31.0956 -93.6411 214° Southwest 462 532 28,000 -246 Level Houston Center
Sun 08:06:27 AM 30.9908 -93.7269 215° Southwest 463 533 27,500 -1,180 Descending Houston Center
Sun 08:07:28 AM 30.8856 -93.8125 215° Southwest 464 534 25,600 -2,033 Descending Houston Center
Sun 08:08:28 AM 30.7814 -93.8953 214° Southwest 457 526 23,400 -2,331 Descending Houston Center
Sun 08:09:29 AM 30.6794 -93.9772 215° Southwest 449 517 20,900 -2,705 Descending Houston Center
Sun 08:10:30 AM 30.5606 -94.0731 215° Southwest 441 507 17,900 -2,686 Descending Houston Center
Sun 08:11:14 AM 30.4942 -94.1267 215° Southwest 425 489 16,200 -2,424 Descending Houston Center
Sun 08:12:09 AM 30.4022 -94.1969 213° Southwest 406 467 13,900 -1,967 Descending Houston Center
Sun 08:13:16 AM 30.3081 -94.2847 219° Southwest 385 443 12,200 -983 Descending Houston Center
Sun 08:14:05 AM 30.2592 -94.3636 234° Southwest 371 427 12,000 -164 Descending Houston Center
Sun 08:15:06 AM 30.2017 -94.4633 236° Southwest 371 427 11,900 -614 Descending Houston Center
Sun 08:16:12 AM 30.1406 -94.5678 236° Southwest 320 368 10,700 -1,091 Descending Houston Center
Sun 08:17:07 AM 30.0953 -94.6439 236° Southwest 307 353 9,700 -988 Descending Houston Center
Sun 08:17:37 AM 30.0825 -94.6669 237° Southwest 317 365 9,300 -1,082 Descending Houston Center
Sun 08:18:08 AM 30.0483 -94.7222 234° Southwest 299 344 8,600 -1,082 Descending Houston Center
Sun 08:18:38 AM 30.0364 -94.7447 238° Southwest 301 346 8,200 -590 Descending Houston Center
Sun 08:19:09 AM 30.0053 -94.8000 237° Southwest 285 328 8,000 -295 Descending Houston Center
Sun 08:19:39 AM 29.9897 -94.8403 246° West 289 333 7,900 -716 Descending Houston Center
Sun 08:20:16 AM 29.9892 -94.8939 269° West 284 327 7,200 -1,304 Descending Houston Center
Sun 08:21:11 AM 29.9947 -94.9753 275° West 272 313 5,900 -1,482 Descending Houston Center
Sun 08:21:41 AM 29.9942 -95.0153 269° West 270 311 5,100 -1,433 Descending Houston Center
Sun 08:22:18 AM 29.9931 -95.0694 269° West 251 289 4,300 -1,237 Descending Houston Center
Sun 08:23:18 AM 29.9936 -95.1419 271° West 224 258 3,100 -1,131 Descending Houston Center
Sun 08:24:20 AM 29.9936 -95.2119 270° West 214 246 2,000 -934 Descending Houston Center
Sun 08:25:20 AM 29.9922 -95.2650 268° West 151 174 1,200 -699 Descending Houston Center
Sun 08:26:46 AM 29.9931 -95.3275 271° West 154 177 300 -628 Descending Houston Center

Login

Don't have an account? Register now (free) for customized features, flight alerts, and more!